sensor_id;sensor_type;location;lat;lon;timestamp;P1;durP1;ratioP1;P2;durP2;ratioP2
75820;SDS011;64454;51.984;9.838;2023-07-29T00:01:47;1.95;;;1.50;;
75820;SDS011;64454;51.984;9.838;2023-07-29T00:04:15;1.70;;;1.50;;
75820;SDS011;64454;51.984;9.838;2023-07-29T00:06:45;2.60;;;1.20;;
75820;SDS011;64454;51.984;9.838;2023-07-29T00:09:14;1.70;;;1.50;;
75820;SDS011;64454;51.984;9.838;2023-07-29T00:11:43;2.60;;;1.30;;
75820;SDS011;64454;51.984;9.838;2023-07-29T00:14:10;1.88;;;1.30;;
75820;SDS011;64454;51.984;9.838;2023-07-29T00:16:37;2.40;;;1.30;;
75820;SDS011;64454;51.984;9.838;2023-07-29T00:19:05;1.48;;;1.20;;
75820;SDS011;64454;51.984;9.838;2023-07-29T00:21:32;1.42;;;1.20;;
75820;SDS011;64454;51.984;9.838;2023-07-29T00:23:59;1.60;;;1.40;;
75820;SDS011;64454;51.984;9.838;2023-07-29T00:26:28;1.70;;;1.40;;
75820;SDS011;64454;51.984;9.838;2023-07-29T00:28:55;1.60;;;1.27;;
75820;SDS011;64454;51.984;9.838;2023-07-29T00:31:22;1.60;;;1.50;;
75820;SDS011;64454;51.984;9.838;2023-07-29T00:33:49;1.70;;;1.40;;
75820;SDS011;64454;51.984;9.838;2023-07-29T00:36:17;1.67;;;1.40;;
75820;SDS011;64454;51.984;9.838;2023-07-29T00:38:45;1.90;;;1.45;;
75820;SDS011;64454;51.984;9.838;2023-07-29T00:41:12;1.80;;;1.55;;
75820;SDS011;64454;51.984;9.838;2023-07-29T00:43:43;1.40;;;1.20;;
75820;SDS011;64454;51.984;9.838;2023-07-29T00:46:10;1.90;;;1.40;;
75820;SDS011;64454;51.984;9.838;2023-07-29T00:48:39;1.60;;;1.20;;
75820;SDS011;64454;51.984;9.838;2023-07-29T00:51:06;1.70;;;1.50;;
75820;SDS011;64454;51.984;9.838;2023-07-29T00:53:33;1.95;;;1.30;;
75820;SDS011;64454;51.984;9.838;2023-07-29T00:56:00;2.22;;;1.40;;
75820;SDS011;64454;51.984;9.838;2023-07-29T00:58:27;2.57;;;1.80;;
75820;SDS011;64454;51.984;9.838;2023-07-29T01:00:56;3.70;;;2.40;;
75820;SDS011;64454;51.984;9.838;2023-07-29T01:03:23;2.50;;;2.30;;
75820;SDS011;64454;51.984;9.838;2023-07-29T01:05:53;2.40;;;2.20;;
75820;SDS011;64454;51.984;9.838;2023-07-29T01:08:37;3.45;;;2.15;;
75820;SDS011;64454;51.984;9.838;2023-07-29T01:11:17;1.80;;;1.30;;
75820;SDS011;64454;51.984;9.838;2023-07-29T01:14:00;3.80;;;1.47;;
75820;SDS011;64454;51.984;9.838;2023-07-29T01:16:38;4.40;;;1.50;;
75820;SDS011;64454;51.984;9.838;2023-07-29T01:19:10;2.28;;;1.83;;
75820;SDS011;64454;51.984;9.838;2023-07-29T01:21:58;2.00;;;1.63;;
75820;SDS011;64454;51.984;9.838;2023-07-29T01:24:28;1.75;;;1.30;;
75820;SDS011;64454;51.984;9.838;2023-07-29T01:26:55;2.13;;;1.40;;
75820;SDS011;64454;51.984;9.838;2023-07-29T01:29:22;2.00;;;1.40;;
75820;SDS011;64454;51.984;9.838;2023-07-29T01:31:50;2.20;;;1.50;;
75820;SDS011;64454;51.984;9.838;2023-07-29T01:34:28;2.50;;;1.45;;
75820;SDS011;64454;51.984;9.838;2023-07-29T01:37:14;3.53;;;1.30;;
75820;SDS011;64454;51.984;9.838;2023-07-29T01:39:50;2.73;;;1.73;;
75820;SDS011;64454;51.984;9.838;2023-07-29T01:42:20;2.00;;;1.30;;
75820;SDS011;64454;51.984;9.838;2023-07-29T01:44:47;3.17;;;1.50;;
75820;SDS011;64454;51.984;9.838;2023-07-29T01:47:15;2.00;;;1.40;;
75820;SDS011;64454;51.984;9.838;2023-07-29T01:49:42;1.60;;;1.20;;
75820;SDS011;64454;51.984;9.838;2023-07-29T01:52:09;1.40;;;1.30;;
75820;SDS011;64454;51.984;9.838;2023-07-29T01:54:36;1.57;;;1.47;;
75820;SDS011;64454;51.984;9.838;2023-07-29T01:57:05;1.87;;;1.47;;
75820;SDS011;64454;51.984;9.838;2023-07-29T01:59:32;2.92;;;1.60;;
75820;SDS011;64454;51.984;9.838;2023-07-29T02:01:59;2.00;;;1.40;;
75820;SDS011;64454;51.984;9.838;2023-07-29T02:04:26;1.70;;;1.50;;
75820;SDS011;64454;51.984;9.838;2023-07-29T02:06:54;1.70;;;1.60;;
75820;SDS011;64454;51.984;9.838;2023-07-29T02:09:21;2.70;;;1.40;;
75820;SDS011;64454;51.984;9.838;2023-07-29T02:11:48;2.13;;;1.30;;
75820;SDS011;64454;51.984;9.838;2023-07-29T02:14:17;1.70;;;1.40;;
75820;SDS011;64454;51.984;9.838;2023-07-29T02:16:46;1.90;;;1.40;;
75820;SDS011;64454;51.984;9.838;2023-07-29T02:19:13;1.93;;;1.40;;
75820;SDS011;64454;51.984;9.838;2023-07-29T02:21:43;2.17;;;1.63;;
75820;SDS011;64454;51.984;9.838;2023-07-29T02:24:10;1.88;;;1.35;;
75820;SDS011;64454;51.984;9.838;2023-07-29T02:26:41;1.83;;;1.60;;
75820;SDS011;64454;51.984;9.838;2023-07-29T02:29:08;1.60;;;1.50;;
75820;SDS011;64454;51.984;9.838;2023-07-29T02:31:36;6.03;;;1.90;;
75820;SDS011;64454;51.984;9.838;2023-07-29T02:34:04;1.40;;;1.30;;
75820;SDS011;64454;51.984;9.838;2023-07-29T02:36:31;1.90;;;1.40;;
75820;SDS011;64454;51.984;9.838;2023-07-29T02:38:58;2.00;;;1.80;;
75820;SDS011;64454;51.984;9.838;2023-07-29T02:41:25;1.77;;;1.50;;
75820;SDS011;64454;51.984;9.838;2023-07-29T02:43:53;2.83;;;1.70;;
75820;SDS011;64454;51.984;9.838;2023-07-29T02:46:20;1.60;;;1.50;;
75820;SDS011;64454;51.984;9.838;2023-07-29T02:48:48;1.67;;;1.57;;
75820;SDS011;64454;51.984;9.838;2023-07-29T02:51:15;1.70;;;1.40;;
75820;SDS011;64454;51.984;9.838;2023-07-29T02:53:42;1.73;;;1.42;;
75820;SDS011;64454;51.984;9.838;2023-07-29T02:56:12;1.45;;;1.30;;
75820;SDS011;64454;51.984;9.838;2023-07-29T02:58:39;1.65;;;1.50;;
75820;SDS011;64454;51.984;9.838;2023-07-29T03:01:06;2.30;;;1.40;;
75820;SDS011;64454;51.984;9.838;2023-07-29T03:03:33;2.60;;;1.40;;
75820;SDS011;64454;51.984;9.838;2023-07-29T03:06:03;2.97;;;1.50;;
75820;SDS011;64454;51.984;9.838;2023-07-29T03:08:32;1.85;;;1.60;;
75820;SDS011;64454;51.984;9.838;2023-07-29T03:11:04;1.83;;;1.50;;
75820;SDS011;64454;51.984;9.838;2023-07-29T03:13:33;2.88;;;1.40;;
75820;SDS011;64454;51.984;9.838;2023-07-29T03:16:04;1.75;;;1.65;;
75820;SDS011;64454;51.984;9.838;2023-07-29T03:18:32;2.10;;;1.43;;
75820;SDS011;64454;51.984;9.838;2023-07-29T03:21:00;2.80;;;1.50;;
75820;SDS011;64454;51.984;9.838;2023-07-29T03:23:28;1.80;;;1.50;;
75820;SDS011;64454;51.984;9.838;2023-07-29T03:25:57;1.88;;;1.50;;
75820;SDS011;64454;51.984;9.838;2023-07-29T03:28:27;1.95;;;1.58;;
75820;SDS011;64454;51.984;9.838;2023-07-29T03:30:55;2.30;;;1.60;;
75820;SDS011;64454;51.984;9.838;2023-07-29T03:33:23;3.10;;;1.70;;
75820;SDS011;64454;51.984;9.838;2023-07-29T03:35:51;1.70;;;1.58;;
75820;SDS011;64454;51.984;9.838;2023-07-29T03:38:19;2.50;;;1.90;;
75820;SDS011;64454;51.984;9.838;2023-07-29T03:40:47;2.10;;;1.60;;
75820;SDS011;64454;51.984;9.838;2023-07-29T03:43:14;2.10;;;1.80;;
75820;SDS011;64454;51.984;9.838;2023-07-29T03:45:41;1.70;;;1.60;;
75820;SDS011;64454;51.984;9.838;2023-07-29T03:48:08;2.38;;;2.00;;
75820;SDS011;64454;51.984;9.838;2023-07-29T03:50:36;2.65;;;1.40;;
75820;SDS011;64454;51.984;9.838;2023-07-29T03:53:03;3.40;;;1.88;;
75820;SDS011;64454;51.984;9.838;2023-07-29T03:55:31;1.80;;;1.70;;
75820;SDS011;64454;51.984;9.838;2023-07-29T03:58:00;2.08;;;1.88;;
75820;SDS011;64454;51.984;9.838;2023-07-29T04:00:27;2.63;;;1.90;;
75820;SDS011;64454;51.984;9.838;2023-07-29T04:02:54;2.20;;;2.00;;
75820;SDS011;64454;51.984;9.838;2023-07-29T04:05:21;1.90;;;1.70;;
75820;SDS011;64454;51.984;9.838;2023-07-29T04:07:48;2.88;;;2.10;;
75820;SDS011;64454;51.984;9.838;2023-07-29T04:10:15;2.15;;;1.80;;
75820;SDS011;64454;51.984;9.838;2023-07-29T04:12:42;3.07;;;2.00;;
75820;SDS011;64454;51.984;9.838;2023-07-29T04:15:11;2.00;;;1.80;;
75820;SDS011;64454;51.984;9.838;2023-07-29T04:17:38;2.00;;;1.80;;
75820;SDS011;64454;51.984;9.838;2023-07-29T04:20:05;2.70;;;1.65;;
75820;SDS011;64454;51.984;9.838;2023-07-29T04:22:33;2.25;;;2.00;;
75820;SDS011;64454;51.984;9.838;2023-07-29T04:25:00;2.85;;;2.20;;
75820;SDS011;64454;51.984;9.838;2023-07-29T04:27:30;2.30;;;1.73;;
75820;SDS011;64454;51.984;9.838;2023-07-29T04:29:57;1.90;;;1.70;;
75820;SDS011;64454;51.984;9.838;2023-07-29T04:32:26;2.38;;;1.95;;
75820;SDS011;64454;51.984;9.838;2023-07-29T04:34:52;2.58;;;1.95;;
75820;SDS011;64454;51.984;9.838;2023-07-29T04:37:19;2.00;;;1.80;;
75820;SDS011;64454;51.984;9.838;2023-07-29T04:39:46;1.88;;;1.65;;
75820;SDS011;64454;51.984;9.838;2023-07-29T04:42:13;2.42;;;1.70;;
75820;SDS011;64454;51.984;9.838;2023-07-29T04:44:40;1.60;;;1.50;;
75820;SDS011;64454;51.984;9.838;2023-07-29T04:47:08;2.70;;;2.03;;
75820;SDS011;64454;51.984;9.838;2023-07-29T04:49:37;2.30;;;2.08;;
75820;SDS011;64454;51.984;9.838;2023-07-29T04:52:04;2.23;;;2.03;;
75820;SDS011;64454;51.984;9.838;2023-07-29T04:54:32;2.60;;;2.00;;
75820;SDS011;64454;51.984;9.838;2023-07-29T04:56:59;2.50;;;1.80;;
75820;SDS011;64454;51.984;9.838;2023-07-29T04:59:26;2.20;;;1.90;;
75820;SDS011;64454;51.984;9.838;2023-07-29T05:01:53;3.50;;;2.30;;
75820;SDS011;64454;51.984;9.838;2023-07-29T05:04:20;2.10;;;1.90;;
75820;SDS011;64454;51.984;9.838;2023-07-29T05:07:07;3.22;;;1.90;;
75820;SDS011;64454;51.984;9.838;2023-07-29T05:09:55;3.10;;;2.05;;
75820;SDS011;64454;51.984;9.838;2023-07-29T05:12:42;3.97;;;2.35;;
75820;SDS011;64454;51.984;9.838;2023-07-29T05:15:29;2.40;;;2.20;;
75820;SDS011;64454;51.984;9.838;2023-07-29T05:17:56;2.23;;;2.00;;
75820;SDS011;64454;51.984;9.838;2023-07-29T05:20:23;2.83;;;2.03;;
75820;SDS011;64454;51.984;9.838;2023-07-29T05:22:52;2.30;;;1.90;;
75820;SDS011;64454;51.984;9.838;2023-07-29T05:25:19;2.40;;;2.20;;
75820;SDS011;64454;51.984;9.838;2023-07-29T05:27:46;3.10;;;1.90;;
75820;SDS011;64454;51.984;9.838;2023-07-29T05:30:13;2.03;;;1.83;;
75820;SDS011;64454;51.984;9.838;2023-07-29T05:32:40;2.67;;;2.08;;
75820;SDS011;64454;51.984;9.838;2023-07-29T05:35:07;3.20;;;2.22;;
75820;SDS011;64454;51.984;9.838;2023-07-29T05:37:35;2.20;;;2.00;;
75820;SDS011;64454;51.984;9.838;2023-07-29T05:40:06;1.90;;;1.80;;
75820;SDS011;64454;51.984;9.838;2023-07-29T05:42:34;2.30;;;2.00;;
75820;SDS011;64454;51.984;9.838;2023-07-29T05:45:01;2.25;;;1.70;;
75820;SDS011;64454;51.984;9.838;2023-07-29T05:47:29;3.65;;;2.00;;
75820;SDS011;64454;51.984;9.838;2023-07-29T05:49:56;2.47;;;2.28;;
75820;SDS011;64454;51.984;9.838;2023-07-29T05:52:23;2.30;;;2.10;;
75820;SDS011;64454;51.984;9.838;2023-07-29T05:54:50;2.10;;;1.83;;
75820;SDS011;64454;51.984;9.838;2023-07-29T05:57:19;3.40;;;1.80;;
75820;SDS011;64454;51.984;9.838;2023-07-29T05:59:46;2.55;;;1.70;;
75820;SDS011;64454;51.984;9.838;2023-07-29T06:02:13;2.37;;;1.90;;
75820;SDS011;64454;51.984;9.838;2023-07-29T06:04:40;2.00;;;1.70;;
75820;SDS011;64454;51.984;9.838;2023-07-29T06:07:07;1.98;;;1.60;;
75820;SDS011;64454;51.984;9.838;2023-07-29T06:09:34;1.77;;;1.67;;
75820;SDS011;64454;51.984;9.838;2023-07-29T06:12:01;3.63;;;1.47;;
75820;SDS011;64454;51.984;9.838;2023-07-29T06:14:30;1.45;;;1.20;;
75820;SDS011;64454;51.984;9.838;2023-07-29T06:16:58;1.90;;;0.88;;
75820;SDS011;64454;51.984;9.838;2023-07-29T06:19:24;1.10;;;0.90;;
75820;SDS011;64454;51.984;9.838;2023-07-29T06:21:51;1.10;;;0.90;;
75820;SDS011;64454;51.984;9.838;2023-07-29T06:24:21;0.80;;;0.70;;
75820;SDS011;64454;51.984;9.838;2023-07-29T06:26:48;1.25;;;0.75;;
75820;SDS011;64454;51.984;9.838;2023-07-29T06:29:16;1.20;;;0.82;;
75820;SDS011;64454;51.984;9.838;2023-07-29T06:31:47;1.00;;;0.70;;
75820;SDS011;64454;51.984;9.838;2023-07-29T06:34:17;1.63;;;0.80;;
75820;SDS011;64454;51.984;9.838;2023-07-29T06:36:46;1.40;;;0.73;;
75820;SDS011;64454;51.984;9.838;2023-07-29T06:39:14;0.80;;;0.50;;
75820;SDS011;64454;51.984;9.838;2023-07-29T06:41:44;1.50;;;0.70;;
75820;SDS011;64454;51.984;9.838;2023-07-29T06:44:11;0.80;;;0.52;;
75820;SDS011;64454;51.984;9.838;2023-07-29T06:46:38;1.50;;;0.63;;
75820;SDS011;64454;51.984;9.838;2023-07-29T06:49:07;1.00;;;0.70;;
75820;SDS011;64454;51.984;9.838;2023-07-29T06:51:34;1.60;;;0.70;;
75820;SDS011;64454;51.984;9.838;2023-07-29T06:54:01;1.50;;;0.70;;
75820;SDS011;64454;51.984;9.838;2023-07-29T06:56:29;0.93;;;0.60;;
75820;SDS011;64454;51.984;9.838;2023-07-29T06:58:56;1.35;;;0.60;;
75820;SDS011;64454;51.984;9.838;2023-07-29T07:01:23;1.10;;;0.70;;
75820;SDS011;64454;51.984;9.838;2023-07-29T07:03:50;1.45;;;0.65;;
75820;SDS011;64454;51.984;9.838;2023-07-29T07:06:20;0.90;;;0.60;;
75820;SDS011;64454;51.984;9.838;2023-07-29T07:08:49;0.95;;;0.70;;
75820;SDS011;64454;51.984;9.838;2023-07-29T07:11:16;0.90;;;0.63;;
75820;SDS011;64454;51.984;9.838;2023-07-29T07:13:44;0.82;;;0.60;;
75820;SDS011;64454;51.984;9.838;2023-07-29T07:16:11;1.30;;;0.70;;
75820;SDS011;64454;51.984;9.838;2023-07-29T07:18:38;1.20;;;0.80;;
75820;SDS011;64454;51.984;9.838;2023-07-29T07:21:05;1.40;;;0.60;;
75820;SDS011;64454;51.984;9.838;2023-07-29T07:23:34;1.50;;;0.80;;
75820;SDS011;64454;51.984;9.838;2023-07-29T07:26:01;1.10;;;0.85;;
75820;SDS011;64454;51.984;9.838;2023-07-29T07:28:28;1.00;;;0.70;;
75820;SDS011;64454;51.984;9.838;2023-07-29T07:30:55;0.90;;;0.68;;
75820;SDS011;64454;51.984;9.838;2023-07-29T07:33:22;1.40;;;0.70;;
75820;SDS011;64454;51.984;9.838;2023-07-29T07:35:49;1.60;;;0.80;;
75820;SDS011;64454;51.984;9.838;2023-07-29T07:38:16;1.35;;;0.80;;
75820;SDS011;64454;51.984;9.838;2023-07-29T07:40:53;1.10;;;0.90;;
75820;SDS011;64454;51.984;9.838;2023-07-29T07:43:21;1.08;;;0.60;;
75820;SDS011;64454;51.984;9.838;2023-07-29T07:45:48;1.35;;;0.90;;
75820;SDS011;64454;51.984;9.838;2023-07-29T07:48:15;1.30;;;0.80;;
75820;SDS011;64454;51.984;9.838;2023-07-29T07:50:42;1.90;;;0.80;;
75820;SDS011;64454;51.984;9.838;2023-07-29T07:53:09;1.20;;;0.90;;
75820;SDS011;64454;51.984;9.838;2023-07-29T07:55:37;1.40;;;1.00;;
75820;SDS011;64454;51.984;9.838;2023-07-29T07:58:06;2.30;;;1.00;;
75820;SDS011;64454;51.984;9.838;2023-07-29T08:00:33;1.10;;;1.00;;
75820;SDS011;64454;51.984;9.838;2023-07-29T08:03:00;1.10;;;0.80;;
75820;SDS011;64454;51.984;9.838;2023-07-29T08:05:27;1.05;;;0.85;;
75820;SDS011;64454;51.984;9.838;2023-07-29T08:07:54;1.40;;;1.00;;
75820;SDS011;64454;51.984;9.838;2023-07-29T08:10:22;1.10;;;0.90;;
75820;SDS011;64454;51.984;9.838;2023-07-29T08:12:49;1.30;;;1.00;;
75820;SDS011;64454;51.984;9.838;2023-07-29T08:15:18;1.27;;;0.95;;
75820;SDS011;64454;51.984;9.838;2023-07-29T08:17:45;1.20;;;0.70;;
75820;SDS011;64454;51.984;9.838;2023-07-29T08:20:12;1.40;;;1.02;;
75820;SDS011;64454;51.984;9.838;2023-07-29T08:22:39;1.42;;;0.90;;
75820;SDS011;64454;51.984;9.838;2023-07-29T08:25:06;1.80;;;1.10;;
75820;SDS011;64454;51.984;9.838;2023-07-29T08:27:34;1.17;;;1.00;;
75820;SDS011;64454;51.984;9.838;2023-07-29T08:30:01;1.60;;;1.00;;
75820;SDS011;64454;51.984;9.838;2023-07-29T08:32:30;2.10;;;1.00;;
75820;SDS011;64454;51.984;9.838;2023-07-29T08:34:57;1.33;;;0.90;;
75820;SDS011;64454;51.984;9.838;2023-07-29T08:37:24;1.40;;;0.98;;
75820;SDS011;64454;51.984;9.838;2023-07-29T08:39:52;1.38;;;1.00;;
75820;SDS011;64454;51.984;9.838;2023-07-29T08:42:19;2.20;;;1.23;;
75820;SDS011;64454;51.984;9.838;2023-07-29T08:44:52;2.00;;;1.15;;
75820;SDS011;64454;51.984;9.838;2023-07-29T08:47:20;1.45;;;1.10;;
75820;SDS011;64454;51.984;9.838;2023-07-29T08:49:49;1.60;;;1.20;;
75820;SDS011;64454;51.984;9.838;2023-07-29T08:52:19;1.40;;;1.30;;
75820;SDS011;64454;51.984;9.838;2023-07-29T08:54:47;1.40;;;1.30;;
75820;SDS011;64454;51.984;9.838;2023-07-29T08:57:15;1.23;;;1.13;;
75820;SDS011;64454;51.984;9.838;2023-07-29T08:59:43;1.63;;;1.30;;
75820;SDS011;64454;51.984;9.838;2023-07-29T09:02:11;1.58;;;1.25;;
75820;SDS011;64454;51.984;9.838;2023-07-29T09:04:38;2.50;;;1.40;;
75820;SDS011;64454;51.984;9.838;2023-07-29T09:07:06;2.00;;;1.33;;
75820;SDS011;64454;51.984;9.838;2023-07-29T09:09:34;2.30;;;1.33;;
75820;SDS011;64454;51.984;9.838;2023-07-29T09:12:01;1.20;;;1.10;;
75820;SDS011;64454;51.984;9.838;2023-07-29T09:14:29;1.40;;;1.10;;
75820;SDS011;64454;51.984;9.838;2023-07-29T09:16:56;1.60;;;1.40;;
75820;SDS011;64454;51.984;9.838;2023-07-29T09:19:24;1.90;;;1.70;;
75820;SDS011;64454;51.984;9.838;2023-07-29T09:21:52;2.40;;;2.10;;
75820;SDS011;64454;51.984;9.838;2023-07-29T09:24:21;1.93;;;1.80;;
75820;SDS011;64454;51.984;9.838;2023-07-29T09:26:48;1.95;;;1.85;;
75820;SDS011;64454;51.984;9.838;2023-07-29T09:29:20;2.30;;;2.05;;
75820;SDS011;64454;51.984;9.838;2023-07-29T09:31:49;2.10;;;2.00;;
75820;SDS011;64454;51.984;9.838;2023-07-29T09:34:17;2.30;;;2.10;;
75820;SDS011;64454;51.984;9.838;2023-07-29T09:36:47;2.20;;;2.00;;
75820;SDS011;64454;51.984;9.838;2023-07-29T09:39:18;2.40;;;2.20;;
75820;SDS011;64454;51.984;9.838;2023-07-29T09:41:50;1.90;;;1.80;;
75820;SDS011;64454;51.984;9.838;2023-07-29T09:44:18;2.65;;;2.00;;
75820;SDS011;64454;51.984;9.838;2023-07-29T09:46:47;2.40;;;2.20;;
75820;SDS011;64454;51.984;9.838;2023-07-29T09:49:15;2.10;;;1.90;;
75820;SDS011;64454;51.984;9.838;2023-07-29T09:51:45;4.43;;;2.70;;
75820;SDS011;64454;51.984;9.838;2023-07-29T09:54:11;3.50;;;3.10;;
75820;SDS011;64454;51.984;9.838;2023-07-29T09:56:42;3.90;;;3.60;;
75820;SDS011;64454;51.984;9.838;2023-07-29T09:59:10;4.90;;;4.40;;
75820;SDS011;64454;51.984;9.838;2023-07-29T10:01:37;4.60;;;4.20;;
75820;SDS011;64454;51.984;9.838;2023-07-29T10:04:05;5.00;;;4.50;;
75820;SDS011;64454;51.984;9.838;2023-07-29T10:06:34;5.30;;;4.80;;
75820;SDS011;64454;51.984;9.838;2023-07-29T10:09:01;6.40;;;5.40;;
75820;SDS011;64454;51.984;9.838;2023-07-29T10:11:28;6.10;;;5.50;;
75820;SDS011;64454;51.984;9.838;2023-07-29T10:13:58;7.05;;;6.35;;
75820;SDS011;64454;51.984;9.838;2023-07-29T10:16:27;6.38;;;5.68;;
75820;SDS011;64454;51.984;9.838;2023-07-29T10:18:55;5.90;;;5.40;;
75820;SDS011;64454;51.984;9.838;2023-07-29T10:21:23;5.93;;;5.33;;
75820;SDS011;64454;51.984;9.838;2023-07-29T10:23:50;5.93;;;5.07;;
75820;SDS011;64454;51.984;9.838;2023-07-29T10:26:24;6.32;;;5.72;;
75820;SDS011;64454;51.984;9.838;2023-07-29T10:28:54;6.45;;;5.85;;
75820;SDS011;64454;51.984;9.838;2023-07-29T10:31:29;5.60;;;5.10;;
75820;SDS011;64454;51.984;9.838;2023-07-29T10:33:58;6.20;;;5.60;;
75820;SDS011;64454;51.984;9.838;2023-07-29T10:36:25;5.73;;;5.23;;
75820;SDS011;64454;51.984;9.838;2023-07-29T10:38:53;5.20;;;4.70;;
75820;SDS011;64454;51.984;9.838;2023-07-29T10:41:21;6.50;;;5.15;;
75820;SDS011;64454;51.984;9.838;2023-07-29T10:43:48;5.95;;;4.90;;
75820;SDS011;64454;51.984;9.838;2023-07-29T10:46:16;5.22;;;4.28;;
75820;SDS011;64454;51.984;9.838;2023-07-29T10:48:52;5.00;;;4.60;;
75820;SDS011;64454;51.984;9.838;2023-07-29T10:51:24;4.60;;;4.20;;
75820;SDS011;64454;51.984;9.838;2023-07-29T10:53:55;5.00;;;4.50;;
75820;SDS011;64454;51.984;9.838;2023-07-29T10:56:27;5.15;;;4.75;;
75820;SDS011;64454;51.984;9.838;2023-07-29T10:58:56;4.80;;;4.40;;
75820;SDS011;64454;51.984;9.838;2023-07-29T11:01:30;5.57;;;5.07;;
75820;SDS011;64454;51.984;9.838;2023-07-29T11:09:56;5.20;;;4.80;;
75820;SDS011;64454;51.984;9.838;2023-07-29T11:12:39;5.40;;;4.15;;
75820;SDS011;64454;51.984;9.838;2023-07-29T11:15:14;4.30;;;3.90;;
75820;SDS011;64454;51.984;9.838;2023-07-29T11:17:48;3.93;;;3.53;;
75820;SDS011;64454;51.984;9.838;2023-07-29T11:20:17;7.10;;;3.55;;
75820;SDS011;64454;51.984;9.838;2023-07-29T11:22:46;4.37;;;3.57;;
75820;SDS011;64454;51.984;9.838;2023-07-29T11:25:14;3.80;;;3.50;;
75820;SDS011;64454;51.984;9.838;2023-07-29T11:27:45;2.80;;;2.60;;
75820;SDS011;64454;51.984;9.838;2023-07-29T11:30:13;3.20;;;2.90;;
75820;SDS011;64454;51.984;9.838;2023-07-29T11:32:42;3.05;;;2.60;;
75820;SDS011;64454;51.984;9.838;2023-07-29T11:35:13;3.13;;;2.78;;
75820;SDS011;64454;51.984;9.838;2023-07-29T11:37:43;3.00;;;2.70;;
75820;SDS011;64454;51.984;9.838;2023-07-29T11:40:13;2.72;;;2.53;;
75820;SDS011;64454;51.984;9.838;2023-07-29T11:42:41;2.60;;;2.40;;
75820;SDS011;64454;51.984;9.838;2023-07-29T11:45:10;2.50;;;2.30;;
75820;SDS011;64454;51.984;9.838;2023-07-29T11:47:39;1.90;;;1.70;;
75820;SDS011;64454;51.984;9.838;2023-07-29T11:50:07;2.70;;;1.70;;
75820;SDS011;64454;51.984;9.838;2023-07-29T11:52:40;1.90;;;1.50;;
75820;SDS011;64454;51.984;9.838;2023-07-29T11:55:09;1.83;;;1.60;;
75820;SDS011;64454;51.984;9.838;2023-07-29T11:57:38;1.67;;;1.58;;
75820;SDS011;64454;51.984;9.838;2023-07-29T12:00:06;2.35;;;1.52;;
75820;SDS011;64454;51.984;9.838;2023-07-29T12:02:37;2.33;;;1.50;;
75820;SDS011;64454;51.984;9.838;2023-07-29T12:05:09;5.50;;;1.70;;
75820;SDS011;64454;51.984;9.838;2023-07-29T12:07:38;3.10;;;1.90;;
75820;SDS011;64454;51.984;9.838;2023-07-29T12:10:09;2.40;;;1.40;;
75820;SDS011;64454;51.984;9.838;2023-07-29T12:12:38;1.50;;;1.20;;
75820;SDS011;64454;51.984;9.838;2023-07-29T12:15:11;2.40;;;1.20;;
75820;SDS011;64454;51.984;9.838;2023-07-29T12:17:39;1.83;;;1.50;;
75820;SDS011;64454;51.984;9.838;2023-07-29T12:20:08;1.50;;;1.20;;
75820;SDS011;64454;51.984;9.838;2023-07-29T12:22:36;2.08;;;1.40;;
75820;SDS011;64454;51.984;9.838;2023-07-29T12:25:05;1.60;;;1.20;;
75820;SDS011;64454;51.984;9.838;2023-07-29T12:27:33;1.70;;;1.00;;
75820;SDS011;64454;51.984;9.838;2023-07-29T12:30:01;2.00;;;1.10;;
75820;SDS011;64454;51.984;9.838;2023-07-29T12:32:29;1.80;;;1.15;;
75820;SDS011;64454;51.984;9.838;2023-07-29T12:34:56;1.65;;;1.08;;
75820;SDS011;64454;51.984;9.838;2023-07-29T12:37:30;1.90;;;1.00;;
75820;SDS011;64454;51.984;9.838;2023-07-29T12:39:58;1.77;;;0.90;;
75820;SDS011;64454;51.984;9.838;2023-07-29T12:42:26;1.75;;;1.02;;
75820;SDS011;64454;51.984;9.838;2023-07-29T12:44:53;1.90;;;1.00;;
75820;SDS011;64454;51.984;9.838;2023-07-29T12:47:20;1.10;;;0.80;;
75820;SDS011;64454;51.984;9.838;2023-07-29T12:49:47;1.30;;;0.90;;
75820;SDS011;64454;51.984;9.838;2023-07-29T12:52:14;1.60;;;0.80;;
75820;SDS011;64454;51.984;9.838;2023-07-29T12:54:41;1.30;;;0.90;;
75820;SDS011;64454;51.984;9.838;2023-07-29T12:57:09;1.30;;;0.88;;
75820;SDS011;64454;51.984;9.838;2023-07-29T12:59:37;1.35;;;0.80;;
75820;SDS011;64454;51.984;9.838;2023-07-29T13:02:04;1.30;;;0.80;;
75820;SDS011;64454;51.984;9.838;2023-07-29T13:04:31;1.40;;;1.00;;
75820;SDS011;64454;51.984;9.838;2023-07-29T13:06:58;3.17;;;1.00;;
75820;SDS011;64454;51.984;9.838;2023-07-29T13:09:25;1.40;;;0.80;;
75820;SDS011;64454;51.984;9.838;2023-07-29T13:11:53;1.60;;;0.95;;
75820;SDS011;64454;51.984;9.838;2023-07-29T13:14:20;1.50;;;1.00;;
75820;SDS011;64454;51.984;9.838;2023-07-29T13:16:48;1.40;;;0.80;;
75820;SDS011;64454;51.984;9.838;2023-07-29T13:19:16;1.57;;;1.10;;
75820;SDS011;64454;51.984;9.838;2023-07-29T13:21:46;1.45;;;0.98;;
75820;SDS011;64454;51.984;9.838;2023-07-29T13:24:14;1.30;;;0.90;;
75820;SDS011;64454;51.984;9.838;2023-07-29T13:26:43;1.27;;;0.90;;
75820;SDS011;64454;51.984;9.838;2023-07-29T13:29:10;2.28;;;1.20;;
75820;SDS011;64454;51.984;9.838;2023-07-29T13:31:37;2.20;;;1.50;;
75820;SDS011;64454;51.984;9.838;2023-07-29T13:34:06;1.60;;;1.20;;
75820;SDS011;64454;51.984;9.838;2023-07-29T13:36:33;2.23;;;1.20;;
75820;SDS011;64454;51.984;9.838;2023-07-29T13:39:00;1.90;;;1.10;;
75820;SDS011;64454;51.984;9.838;2023-07-29T13:41:26;1.80;;;1.10;;
75820;SDS011;64454;51.984;9.838;2023-07-29T13:43:53;2.00;;;0.90;;
75820;SDS011;64454;51.984;9.838;2023-07-29T13:46:20;2.00;;;1.30;;
75820;SDS011;64454;51.984;9.838;2023-07-29T13:48:47;1.30;;;1.00;;
75820;SDS011;64454;51.984;9.838;2023-07-29T13:51:16;3.10;;;1.00;;
75820;SDS011;64454;51.984;9.838;2023-07-29T13:53:43;2.63;;;1.40;;
75820;SDS011;64454;51.984;9.838;2023-07-29T13:56:10;2.63;;;1.40;;
75820;SDS011;64454;51.984;9.838;2023-07-29T13:58:37;1.70;;;1.00;;
75820;SDS011;64454;51.984;9.838;2023-07-29T14:01:03;1.73;;;1.15;;
75820;SDS011;64454;51.984;9.838;2023-07-29T14:03:30;1.95;;;1.42;;
75820;SDS011;64454;51.984;9.838;2023-07-29T14:05:57;1.60;;;1.10;;
75820;SDS011;64454;51.984;9.838;2023-07-29T14:08:26;1.70;;;1.15;;
75820;SDS011;64454;51.984;9.838;2023-07-29T14:10:53;2.30;;;1.60;;
75820;SDS011;64454;51.984;9.838;2023-07-29T14:13:19;1.63;;;1.40;;
75820;SDS011;64454;51.984;9.838;2023-07-29T14:15:46;1.65;;;1.40;;
75820;SDS011;64454;51.984;9.838;2023-07-29T14:18:13;1.90;;;1.30;;
75820;SDS011;64454;51.984;9.838;2023-07-29T14:20:40;1.70;;;1.50;;
75820;SDS011;64454;51.984;9.838;2023-07-29T14:23:07;2.53;;;1.50;;
75820;SDS011;64454;51.984;9.838;2023-07-29T14:25:36;1.90;;;1.40;;
75820;SDS011;64454;51.984;9.838;2023-07-29T14:28:03;2.10;;;1.10;;
75820;SDS011;64454;51.984;9.838;2023-07-29T14:30:30;2.05;;;1.50;;
75820;SDS011;64454;51.984;9.838;2023-07-29T14:32:57;1.80;;;1.33;;
75820;SDS011;64454;51.984;9.838;2023-07-29T14:35:24;2.97;;;1.60;;
75820;SDS011;64454;51.984;9.838;2023-07-29T14:37:51;2.40;;;1.60;;
75820;SDS011;64454;51.984;9.838;2023-07-29T14:40:18;3.67;;;2.40;;
75820;SDS011;64454;51.984;9.838;2023-07-29T14:42:47;2.78;;;2.20;;
75820;SDS011;64454;51.984;9.838;2023-07-29T14:45:13;2.45;;;2.20;;
75820;SDS011;64454;51.984;9.838;2023-07-29T14:47:40;1.83;;;1.60;;
75820;SDS011;64454;51.984;9.838;2023-07-29T14:50:08;2.20;;;1.80;;
75820;SDS011;64454;51.984;9.838;2023-07-29T14:52:35;2.20;;;1.80;;
75820;SDS011;64454;51.984;9.838;2023-07-29T14:55:02;2.17;;;1.70;;
75820;SDS011;64454;51.984;9.838;2023-07-29T14:57:30;1.90;;;1.70;;
75820;SDS011;64454;51.984;9.838;2023-07-29T14:59:58;2.00;;;1.60;;
75820;SDS011;64454;51.984;9.838;2023-07-29T15:02:25;2.08;;;1.80;;